createdAt,value
2018-07-30T00:01:50.784Z,23.55
2018-07-30T00:04:18.849Z,23.55
2018-07-30T00:06:46.888Z,23.54
2018-07-30T00:09:14.931Z,23.52
2018-07-30T00:11:42.956Z,23.54
2018-07-30T00:14:11.353Z,23.52
2018-07-30T00:16:39.377Z,23.51
2018-07-30T00:19:07.410Z,23.50
2018-07-30T00:21:35.445Z,23.51
2018-07-30T00:24:03.481Z,23.50
2018-07-30T00:26:31.500Z,23.45
2018-07-30T00:28:59.521Z,23.40
2018-07-30T00:31:27.566Z,23.40
2018-07-30T00:33:55.568Z,23.42
2018-07-30T00:36:23.589Z,23.41
2018-07-30T00:38:51.604Z,23.35
2018-07-30T00:41:19.654Z,23.30
2018-07-30T00:43:47.694Z,23.26
2018-07-30T00:46:15.716Z,23.27
2018-07-30T00:48:43.740Z,23.26
2018-07-30T00:51:11.828Z,23.24
2018-07-30T00:53:40.110Z,23.22
2018-07-30T00:56:08.130Z,23.24
2018-07-30T00:58:36.140Z,23.24
2018-07-30T01:01:04.796Z,23.25
2018-07-30T01:03:32.817Z,23.23
2018-07-30T01:06:00.840Z,23.18
2018-07-30T01:08:28.877Z,23.15
2018-07-30T01:10:56.900Z,23.13
2018-07-30T01:13:24.916Z,23.14
2018-07-30T01:15:52.939Z,23.15
2018-07-30T01:18:20.969Z,23.15
2018-07-30T01:20:49.101Z,23.12
2018-07-30T01:23:17.255Z,23.11
2018-07-30T01:25:45.274Z,23.07
2018-07-30T01:28:13.302Z,23.05
2018-07-30T01:30:41.335Z,23.05
2018-07-30T01:33:09.357Z,23.06
2018-07-30T01:35:37.382Z,23.08
2018-07-30T01:38:05.539Z,23.09
2018-07-30T01:40:33.562Z,23.09
2018-07-30T01:43:01.581Z,23.12
2018-07-30T01:45:29.607Z,23.08
2018-07-30T01:47:57.623Z,23.03
2018-07-30T01:50:25.631Z,23.03
2018-07-30T01:52:53.806Z,23.03
2018-07-30T01:55:21.878Z,23.03
2018-07-30T01:57:49.888Z,23.02
2018-07-30T02:00:17.921Z,23.02
2018-07-30T02:02:45.940Z,23.01
2018-07-30T02:05:13.972Z,23.02
2018-07-30T02:07:42.547Z,23.02
2018-07-30T02:10:11.878Z,23.03
2018-07-30T02:12:40.294Z,23.03
2018-07-30T02:15:08.577Z,23.00
2018-07-30T02:17:36.613Z,22.93
2018-07-30T02:20:05.823Z,22.90
2018-07-30T02:22:33.868Z,22.90
2018-07-30T02:25:01.881Z,22.88
2018-07-30T02:27:29.917Z,22.87
2018-07-30T02:29:57.945Z,22.86
2018-07-30T02:32:25.989Z,22.83
2018-07-30T02:34:54.026Z,22.83
2018-07-30T02:37:22.041Z,22.80
2018-07-30T02:39:50.082Z,22.79
2018-07-30T02:42:18.242Z,22.80
2018-07-30T02:44:46.275Z,22.80
2018-07-30T02:47:14.301Z,22.82
2018-07-30T02:49:42.473Z,22.80
2018-07-30T02:52:10.500Z,22.78
2018-07-30T02:54:38.505Z,22.77
2018-07-30T02:57:06.769Z,22.78
2018-07-30T02:59:34.794Z,22.78
2018-07-30T03:02:02.819Z,22.78
2018-07-30T03:04:31.004Z,22.80
2018-07-30T03:06:59.028Z,22.80
2018-07-30T03:09:27.072Z,22.81
2018-07-30T03:11:55.245Z,22.82
2018-07-30T03:14:23.277Z,22.83
2018-07-30T03:16:51.301Z,22.84
2018-07-30T03:19:19.325Z,22.85
2018-07-30T03:21:47.346Z,22.85
2018-07-30T03:24:15.365Z,22.83
2018-07-30T03:26:43.381Z,22.80
2018-07-30T03:29:11.406Z,22.80
2018-07-30T03:31:39.429Z,22.78
2018-07-30T03:34:07.446Z,22.77
2018-07-30T03:36:35.455Z,22.78
2018-07-30T03:39:03.809Z,22.73
2018-07-30T03:41:31.852Z,22.73
2018-07-30T03:43:59.878Z,22.73
2018-07-30T03:46:27.895Z,22.72
2018-07-30T03:48:55.904Z,22.70
2018-07-30T03:51:23.933Z,22.70
2018-07-30T03:53:51.952Z,22.70
2018-07-30T03:56:20.136Z,22.71
2018-07-30T03:58:48.162Z,22.72
2018-07-30T04:01:16.193Z,22.72
2018-07-30T04:03:44.219Z,22.74
2018-07-30T04:06:12.322Z,22.73
2018-07-30T04:08:40.262Z,22.74
2018-07-30T04:11:08.539Z,22.75
2018-07-30T04:13:36.561Z,22.75
2018-07-30T04:16:05.304Z,22.75
2018-07-30T04:18:33.312Z,22.74
2018-07-30T04:21:01.346Z,22.75
2018-07-30T04:23:29.359Z,22.77
2018-07-30T04:25:57.377Z,22.78
2018-07-30T04:28:25.385Z,22.76
2018-07-30T04:30:53.467Z,22.78
2018-07-30T04:33:21.444Z,22.79
2018-07-30T04:35:49.463Z,22.80
2018-07-30T04:38:17.644Z,22.86
2018-07-30T04:40:45.797Z,22.92
2018-07-30T04:43:13.887Z,22.93
2018-07-30T04:45:41.921Z,22.93
2018-07-30T04:48:09.949Z,22.93
2018-07-30T04:50:37.996Z,22.96
2018-07-30T04:53:06.020Z,23.01
2018-07-30T04:55:34.044Z,23.00
2018-07-30T04:58:02.072Z,22.96
2018-07-30T05:00:30.105Z,23.00
2018-07-30T05:02:58.160Z,23.04
2018-07-30T05:05:26.193Z,23.07
2018-07-30T05:07:54.224Z,23.06
2018-07-30T05:10:22.240Z,23.13
2018-07-30T05:12:50.261Z,23.18
2018-07-30T05:15:18.441Z,23.20
2018-07-30T05:17:46.628Z,23.25
2018-07-30T05:20:14.640Z,23.30
2018-07-30T05:22:42.664Z,23.35
2018-07-30T05:25:10.693Z,23.37
2018-07-30T05:27:38.743Z,23.40
2018-07-30T05:30:07.008Z,23.43
2018-07-30T05:32:35.028Z,23.49
2018-07-30T05:35:03.048Z,23.57
2018-07-30T05:37:31.076Z,23.62
2018-07-30T05:39:59.113Z,23.69
2018-07-30T05:42:27.161Z,23.75
2018-07-30T05:44:55.547Z,23.78
2018-07-30T05:47:23.560Z,23.82
2018-07-30T05:49:51.595Z,23.90
2018-07-30T05:52:19.620Z,23.94
2018-07-30T05:54:47.834Z,24.00
2018-07-30T05:57:15.866Z,24.02
2018-07-30T05:59:43.928Z,24.01
2018-07-30T06:02:11.933Z,24.04
2018-07-30T06:04:39.970Z,24.08
2018-07-30T06:07:07.993Z,24.15
2018-07-30T06:09:36.040Z,24.23
2018-07-30T06:12:04.825Z,24.30
2018-07-30T06:14:32.857Z,24.36
2018-07-30T06:17:00.892Z,24.42
2018-07-30T06:19:28.922Z,24.47
2018-07-30T06:21:56.978Z,24.55
2018-07-30T06:24:25.024Z,24.62
2018-07-30T06:26:53.097Z,24.69
2018-07-30T06:29:21.121Z,24.74
2018-07-30T06:31:49.236Z,24.78
2018-07-30T06:34:23.913Z,24.87
2018-07-30T06:36:51.962Z,24.98
2018-07-30T06:39:20.233Z,25.19
2018-07-30T06:41:48.253Z,25.33
2018-07-30T06:44:16.289Z,25.53
2018-07-30T06:46:44.423Z,25.74
2018-07-30T06:49:12.447Z,25.99
2018-07-30T06:51:40.568Z,26.25
2018-07-30T06:54:08.624Z,26.50
2018-07-30T06:56:36.648Z,26.85
2018-07-30T06:59:04.691Z,27.14
2018-07-30T07:01:32.739Z,27.38
2018-07-30T07:04:00.766Z,27.60
2018-07-30T07:06:29.216Z,27.93
2018-07-30T07:08:57.250Z,28.21
2018-07-30T07:11:25.281Z,28.54
2018-07-30T07:13:53.505Z,28.86
2018-07-30T07:16:21.841Z,29.06
2018-07-30T07:18:49.873Z,29.13
2018-07-30T07:21:17.966Z,29.31
2018-07-30T07:23:45.924Z,29.51
2018-07-30T07:26:13.982Z,29.63
2018-07-30T07:28:42.334Z,29.77
2018-07-30T07:31:10.594Z,30.01
2018-07-30T07:33:38.685Z,30.29
2018-07-30T07:36:06.969Z,30.45
2018-07-30T07:38:35.002Z,30.69
2018-07-30T07:41:03.200Z,30.88
2018-07-30T07:43:31.236Z,31.05
2018-07-30T07:45:59.276Z,31.22
2018-07-30T07:48:27.318Z,31.32
2018-07-30T07:50:55.550Z,31.41
2018-07-30T07:53:23.398Z,31.47
2018-07-30T07:55:51.501Z,31.53
2018-07-30T07:58:19.530Z,31.68
2018-07-30T08:00:47.550Z,31.61
2018-07-30T08:03:15.856Z,31.90
2018-07-30T08:05:44.098Z,32.19
2018-07-30T08:08:12.155Z,32.29
2018-07-30T08:10:40.358Z,32.35
2018-07-30T08:13:08.395Z,32.24
2018-07-30T08:15:36.792Z,32.07
2018-07-30T08:18:04.825Z,32.12
2018-07-30T08:20:32.861Z,32.38
2018-07-30T08:23:01.015Z,32.77
2018-07-30T08:25:29.055Z,32.80
2018-07-30T08:27:57.096Z,32.87
2018-07-30T08:30:25.157Z,32.78
2018-07-30T08:32:53.194Z,32.57
2018-07-30T08:35:21.213Z,32.41
2018-07-30T08:37:49.228Z,32.34
2018-07-30T08:40:17.273Z,32.47
2018-07-30T08:42:45.297Z,32.54
2018-07-30T08:45:13.358Z,32.68
2018-07-30T08:47:41.383Z,32.77
2018-07-30T08:50:09.526Z,32.87
2018-07-30T08:52:37.576Z,32.89
2018-07-30T08:55:06.049Z,33.16
2018-07-30T08:57:34.090Z,33.34
2018-07-30T09:00:02.167Z,33.64
2018-07-30T09:02:30.483Z,33.68
2018-07-30T09:04:58.506Z,33.55
2018-07-30T09:07:26.532Z,33.79
2018-07-30T09:09:54.724Z,33.93
2018-07-30T09:12:23.014Z,34.19
2018-07-30T09:14:51.004Z,34.45
2018-07-30T09:17:19.554Z,34.60
2018-07-30T09:19:47.534Z,34.79
2018-07-30T09:22:15.616Z,34.80
2018-07-30T09:24:43.778Z,34.85
2018-07-30T09:27:11.856Z,35.00
2018-07-30T09:29:39.820Z,34.85
2018-07-30T09:32:07.956Z,34.72
2018-07-30T09:34:35.977Z,34.58
2018-07-30T09:37:05.287Z,34.65
2018-07-30T09:39:33.388Z,34.66
2018-07-30T09:42:01.405Z,34.93
2018-07-30T09:44:29.879Z,35.25
2018-07-30T09:46:57.852Z,35.28
2018-07-30T09:49:25.881Z,35.38
2018-07-30T09:51:53.925Z,35.24
2018-07-30T09:54:21.944Z,35.34
2018-07-30T09:56:49.968Z,35.16
2018-07-30T09:59:18.000Z,35.20
2018-07-30T10:01:46.019Z,35.38
2018-07-30T10:04:14.042Z,35.48
2018-07-30T10:06:42.204Z,35.75
2018-07-30T10:09:11.100Z,35.86
2018-07-30T10:11:39.262Z,35.78
2018-07-30T10:14:14.025Z,35.93
2018-07-30T10:16:42.101Z,35.86
2018-07-30T10:19:10.140Z,35.89
2018-07-30T10:21:38.169Z,36.15
2018-07-30T10:24:06.349Z,36.30
2018-07-30T10:26:34.370Z,36.21
2018-07-30T10:29:02.430Z,36.18
2018-07-30T10:31:30.435Z,36.12
2018-07-30T10:33:58.924Z,36.12
2018-07-30T10:36:26.965Z,36.14
2018-07-30T10:38:55.369Z,36.35
2018-07-30T10:41:23.410Z,36.55
2018-07-30T10:43:51.477Z,36.20
2018-07-30T10:46:19.579Z,35.84
2018-07-30T10:48:47.560Z,35.94
2018-07-30T10:51:15.738Z,35.94
2018-07-30T10:53:43.777Z,35.95
2018-07-30T10:56:11.851Z,36.06
2018-07-30T10:58:39.897Z,36.33
2018-07-30T11:01:08.017Z,36.36
2018-07-30T11:03:35.940Z,36.26
2018-07-30T11:06:05.417Z,36.35
2018-07-30T11:08:33.670Z,36.18
2018-07-30T11:11:01.743Z,35.80
2018-07-30T11:13:29.762Z,35.64
2018-07-30T11:15:57.785Z,35.65
2018-07-30T11:18:26.630Z,35.88
2018-07-30T11:20:54.650Z,35.76
2018-07-30T11:23:22.711Z,35.85
2018-07-30T11:25:50.729Z,36.00
2018-07-30T11:28:18.892Z,36.04
2018-07-30T11:30:47.030Z,36.13
2018-07-30T11:33:15.300Z,36.38
2018-07-30T11:35:43.482Z,36.63
2018-07-30T11:38:11.546Z,36.79
2018-07-30T11:40:39.582Z,36.69
2018-07-30T11:43:07.630Z,36.70
2018-07-30T11:45:35.670Z,36.92
2018-07-30T11:48:03.727Z,37.04
2018-07-30T11:50:31.805Z,37.23
2018-07-30T11:52:59.864Z,37.40
2018-07-30T11:55:28.321Z,37.62
2018-07-30T11:57:56.368Z,37.86
2018-07-30T12:00:24.417Z,37.66
2018-07-30T12:02:52.655Z,37.22
2018-07-30T12:05:20.680Z,36.73
2018-07-30T12:07:48.751Z,36.36
2018-07-30T12:10:16.780Z,36.54
2018-07-30T12:12:44.851Z,36.65
2018-07-30T12:15:12.958Z,36.46
2018-07-30T12:17:40.982Z,36.26
2018-07-30T12:20:09.025Z,36.25
2018-07-30T12:22:37.046Z,36.39
2018-07-30T12:25:05.096Z,36.26
2018-07-30T12:27:33.137Z,36.19
2018-07-30T12:30:01.353Z,36.15
2018-07-30T12:32:29.381Z,36.18
2018-07-30T12:34:57.426Z,36.07
2018-07-30T12:37:25.609Z,36.02
2018-07-30T12:39:53.657Z,36.01
2018-07-30T12:42:21.684Z,36.15
2018-07-30T12:44:49.736Z,36.18
2018-07-30T12:47:17.764Z,35.99
2018-07-30T12:49:45.823Z,35.86
2018-07-30T12:52:13.844Z,35.79
2018-07-30T12:54:41.880Z,35.81
2018-07-30T12:57:09.900Z,36.06
2018-07-30T12:59:38.180Z,36.24
2018-07-30T13:02:06.233Z,36.22
2018-07-30T13:04:34.349Z,36.33
2018-07-30T13:07:02.420Z,36.49
2018-07-30T13:09:30.504Z,36.57
2018-07-30T13:11:58.536Z,36.59
2018-07-30T13:14:26.562Z,36.57
2018-07-30T13:16:55.005Z,36.77
2018-07-30T13:19:23.109Z,36.89
2018-07-30T13:21:51.167Z,36.93
2018-07-30T13:24:19.251Z,36.96
2018-07-30T13:26:47.360Z,37.03
2018-07-30T13:29:15.297Z,36.87
2018-07-30T13:31:43.446Z,36.92
2018-07-30T13:34:11.624Z,37.15
2018-07-30T13:36:39.649Z,37.14
2018-07-30T13:39:09.373Z,36.81
2018-07-30T13:41:38.494Z,36.55
2018-07-30T13:44:07.326Z,36.54
2018-07-30T13:46:35.728Z,36.52
2018-07-30T13:49:04.292Z,36.34
2018-07-30T13:51:32.316Z,36.20
2018-07-30T13:54:00.336Z,35.99
2018-07-30T13:56:28.454Z,35.88
2018-07-30T13:58:56.540Z,35.85
2018-07-30T14:01:24.611Z,35.78
2018-07-30T14:03:52.844Z,35.77
2018-07-30T14:06:20.924Z,35.75
2018-07-30T14:08:48.920Z,35.77
2018-07-30T14:11:16.960Z,35.70
2018-07-30T14:13:45.002Z,35.68
2018-07-30T14:16:13.036Z,35.53
2018-07-30T14:18:41.398Z,35.40
2018-07-30T14:21:09.451Z,35.33
2018-07-30T14:23:37.571Z,35.45
2018-07-30T14:26:05.622Z,35.64
2018-07-30T14:28:33.738Z,35.87
2018-07-30T14:31:01.773Z,35.93
2018-07-30T14:33:29.840Z,36.19
2018-07-30T14:35:57.852Z,36.42
2018-07-30T14:38:25.908Z,36.50
2018-07-30T14:40:54.058Z,36.68
2018-07-30T14:43:22.088Z,36.67
2018-07-30T14:45:50.141Z,36.73
2018-07-30T14:48:18.557Z,36.88
2018-07-30T14:50:46.593Z,36.84
2018-07-30T14:53:15.553Z,36.74
2018-07-30T14:55:43.998Z,36.78
2018-07-30T14:58:12.030Z,36.88
2018-07-30T15:00:40.062Z,36.65
2018-07-30T15:03:08.252Z,36.61
2018-07-30T15:05:36.605Z,36.57
2018-07-30T15:08:05.137Z,36.55
2018-07-30T15:10:33.164Z,36.53
2018-07-30T15:13:01.217Z,36.43
2018-07-30T15:15:29.277Z,36.34
2018-07-30T15:17:57.319Z,36.38
2018-07-30T15:20:25.510Z,36.19
2018-07-30T15:22:53.729Z,36.22
2018-07-30T15:25:21.803Z,36.29
2018-07-30T15:27:49.831Z,36.21
2018-07-30T15:30:17.869Z,36.18
2018-07-30T15:32:45.927Z,36.18
2018-07-30T15:35:13.970Z,36.19
2018-07-30T15:37:42.012Z,36.03
2018-07-30T15:40:10.102Z,35.81
2018-07-30T15:42:38.360Z,35.63
2018-07-30T15:45:06.432Z,35.41
2018-07-30T15:47:34.478Z,35.26
2018-07-30T15:50:02.526Z,35.22
2018-07-30T15:52:30.554Z,35.15
2018-07-30T15:54:58.631Z,35.13
2018-07-30T15:57:26.642Z,35.09
2018-07-30T15:59:54.675Z,35.11
2018-07-30T16:02:22.697Z,35.20
2018-07-30T16:04:50.733Z,35.24
2018-07-30T16:07:18.875Z,35.30
2018-07-30T16:09:46.900Z,35.38
2018-07-30T16:12:14.976Z,35.49
2018-07-30T16:14:43.047Z,35.56
2018-07-30T16:17:11.098Z,35.62
2018-07-30T16:19:39.134Z,35.63
2018-07-30T16:22:07.276Z,35.64
2018-07-30T16:24:35.342Z,35.61
2018-07-30T16:27:03.436Z,35.55
2018-07-30T16:29:31.522Z,35.52
2018-07-30T16:31:59.725Z,35.55
2018-07-30T16:34:27.792Z,35.52
2018-07-30T16:36:55.853Z,35.46
2018-07-30T16:39:23.913Z,35.38
2018-07-30T16:41:51.995Z,35.40
2018-07-30T16:44:20.033Z,35.40
2018-07-30T16:46:48.248Z,35.43
2018-07-30T16:49:16.265Z,35.39
2018-07-30T16:51:44.318Z,35.40
2018-07-30T16:54:12.677Z,35.42
2018-07-30T16:56:40.698Z,35.40
2018-07-30T16:59:08.709Z,35.41
2018-07-30T17:01:36.769Z,35.30
2018-07-30T17:04:04.874Z,35.20
2018-07-30T17:06:32.946Z,35.09
2018-07-30T17:09:01.125Z,34.99
2018-07-30T17:11:29.161Z,34.92
2018-07-30T17:13:57.195Z,34.81
2018-07-30T17:16:25.230Z,34.77
2018-07-30T17:18:53.240Z,34.78
2018-07-30T17:21:21.272Z,34.73
2018-07-30T17:23:49.308Z,34.69
2018-07-30T17:26:17.345Z,34.61
2018-07-30T17:28:45.480Z,34.58
2018-07-30T17:31:13.518Z,34.54
2018-07-30T17:33:41.564Z,34.48
2018-07-30T17:36:09.610Z,34.37
2018-07-30T17:38:37.646Z,34.24
2018-07-30T17:41:05.720Z,34.14
2018-07-30T17:43:33.866Z,34.09
2018-07-30T17:46:01.894Z,34.05
2018-07-30T17:48:29.949Z,33.97
2018-07-30T17:50:57.980Z,33.90
2018-07-30T17:53:27.021Z,33.85
2018-07-30T17:55:55.091Z,33.81
2018-07-30T17:58:23.121Z,33.83
2018-07-30T18:00:51.158Z,33.80
2018-07-30T18:03:19.363Z,33.80
2018-07-30T18:05:47.388Z,33.71
2018-07-30T18:08:15.424Z,33.60
2018-07-30T18:10:43.478Z,33.54
2018-07-30T18:13:11.498Z,33.52
2018-07-30T18:15:39.678Z,33.49
2018-07-30T18:18:07.725Z,33.47
2018-07-30T18:20:35.917Z,33.41
2018-07-30T18:23:04.726Z,33.37
2018-07-30T18:25:32.762Z,33.31
2018-07-30T18:28:00.808Z,33.22
2018-07-30T18:30:28.836Z,33.14
2018-07-30T18:32:56.857Z,33.06
2018-07-30T18:35:24.889Z,32.99
2018-07-30T18:37:52.910Z,32.90
2018-07-30T18:40:20.946Z,32.83
2018-07-30T18:42:48.984Z,32.73
2018-07-30T18:45:17.009Z,32.63
2018-07-30T18:47:45.048Z,32.50
2018-07-30T18:50:13.092Z,32.41
2018-07-30T18:52:41.277Z,32.34
2018-07-30T18:55:09.315Z,32.20
2018-07-30T18:57:37.361Z,32.05
2018-07-30T19:00:05.717Z,31.92
2018-07-30T19:02:33.739Z,31.81
2018-07-30T19:05:01.791Z,31.74
2018-07-30T19:07:29.817Z,31.65
2018-07-30T19:09:57.881Z,31.59
2018-07-30T19:12:26.110Z,31.49
2018-07-30T19:14:54.140Z,31.41
2018-07-30T19:17:22.157Z,31.25
2018-07-30T19:19:50.192Z,31.09
2018-07-30T19:22:18.268Z,30.92
2018-07-30T19:24:46.320Z,30.81
2018-07-30T19:27:14.312Z,30.74
2018-07-30T19:29:42.354Z,30.66
2018-07-30T19:32:10.376Z,30.60
2018-07-30T19:34:38.412Z,30.49
2018-07-30T19:37:06.506Z,30.43
2018-07-30T19:39:34.561Z,30.35
2018-07-30T19:42:02.586Z,30.19
2018-07-30T19:44:30.625Z,30.12
2018-07-30T19:46:58.646Z,29.98
2018-07-30T19:49:26.686Z,29.89
2018-07-30T19:51:54.735Z,29.84
2018-07-30T19:54:22.782Z,29.76
2018-07-30T19:56:50.801Z,29.69
2018-07-30T19:59:18.831Z,29.57
2018-07-30T20:01:46.895Z,29.49
2018-07-30T20:04:14.914Z,29.45
2018-07-30T20:06:42.944Z,29.39
2018-07-30T20:09:12.133Z,29.35
2018-07-30T20:11:40.164Z,29.32
2018-07-30T20:14:08.228Z,29.27
2018-07-30T20:16:36.544Z,29.20
2018-07-30T20:19:04.828Z,29.12
2018-07-30T20:21:32.894Z,29.06
2018-07-30T20:24:00.933Z,28.99
2018-07-30T20:26:29.229Z,28.91
2018-07-30T20:28:57.281Z,28.84
2018-07-30T20:31:26.421Z,28.75
2018-07-30T20:33:55.701Z,28.67
2018-07-30T20:36:24.100Z,28.60
2018-07-30T20:38:52.916Z,28.53
2018-07-30T20:41:20.962Z,28.45
2018-07-30T20:43:49.009Z,28.36
2018-07-30T20:46:17.053Z,28.23
2018-07-30T20:48:45.109Z,28.05
2018-07-30T20:51:13.342Z,27.96
2018-07-30T20:53:41.377Z,27.85
2018-07-30T20:56:09.432Z,27.78
2018-07-30T20:58:37.465Z,27.73
2018-07-30T21:01:05.484Z,27.72
2018-07-30T21:03:33.542Z,27.68
2018-07-30T21:06:01.566Z,27.65
2018-07-30T21:08:29.602Z,27.62
2018-07-30T21:10:57.634Z,27.59
2018-07-30T21:13:25.657Z,27.58
2018-07-30T21:15:53.672Z,27.57
2018-07-30T21:18:21.714Z,27.55
2018-07-30T21:20:49.754Z,27.52
2018-07-30T21:23:17.838Z,27.45
2018-07-30T21:25:45.912Z,27.39
2018-07-30T21:28:13.973Z,27.36
2018-07-30T21:30:42.038Z,27.34
2018-07-30T21:33:10.531Z,27.35
2018-07-30T21:35:38.574Z,27.33
2018-07-30T21:38:06.914Z,27.29
2018-07-30T21:40:35.698Z,27.22
2018-07-30T21:43:03.736Z,27.17
2018-07-30T21:45:31.781Z,27.13
2018-07-30T21:47:59.816Z,27.06
2018-07-30T21:50:27.854Z,27.00
2018-07-30T21:52:55.943Z,26.98
2018-07-30T21:55:24.004Z,26.92
2018-07-30T21:57:52.054Z,26.91
2018-07-30T22:00:22.716Z,26.89
2018-07-30T22:02:51.271Z,26.91
2018-07-30T22:05:19.771Z,26.93
2018-07-30T22:07:47.797Z,26.91
2018-07-30T22:10:15.921Z,26.91
2018-07-30T22:12:44.020Z,26.90
2018-07-30T22:15:12.137Z,26.98
2018-07-30T22:17:40.463Z,27.00
2018-07-30T22:20:08.513Z,26.99
2018-07-30T22:22:37.500Z,26.99
2018-07-30T22:25:06.606Z,27.00
2018-07-30T22:27:34.646Z,27.01
2018-07-30T22:30:02.782Z,26.99
2018-07-30T22:32:30.937Z,26.96
2018-07-30T22:34:58.949Z,26.96
2018-07-30T22:37:26.980Z,26.94
2018-07-30T22:39:55.016Z,26.91
2018-07-30T22:42:23.053Z,26.91
2018-07-30T22:44:51.091Z,26.92
2018-07-30T22:47:19.109Z,26.92
2018-07-30T22:49:47.147Z,26.83
2018-07-30T22:52:15.196Z,26.83
2018-07-30T22:54:43.236Z,26.75
2018-07-30T22:57:11.270Z,26.70
2018-07-30T22:59:39.307Z,26.64
2018-07-30T23:02:07.347Z,26.63
2018-07-30T23:04:35.378Z,26.58
2018-07-30T23:07:04.004Z,26.50
2018-07-30T23:09:32.038Z,26.47
2018-07-30T23:12:00.158Z,26.43
2018-07-30T23:14:28.194Z,26.40
2018-07-30T23:16:56.217Z,26.33
2018-07-30T23:19:24.241Z,26.29
2018-07-30T23:21:52.284Z,26.25
2018-07-30T23:24:20.317Z,26.22
2018-07-30T23:26:48.356Z,26.14
2018-07-30T23:29:16.530Z,26.08
2018-07-30T23:31:44.430Z,26.04
2018-07-30T23:34:12.455Z,26.00
2018-07-30T23:36:40.559Z,25.94
2018-07-30T23:39:10.161Z,25.82
2018-07-30T23:41:38.264Z,25.72
2018-07-30T23:44:06.461Z,25.67
2018-07-30T23:46:34.478Z,25.64
2018-07-30T23:49:02.779Z,25.52
2018-07-30T23:51:30.968Z,25.49
2018-07-30T23:53:59.235Z,25.43
2018-07-30T23:56:27.344Z,25.38
2018-07-30T23:58:55.363Z,25.29
